sensor_id;sensor_type;location;lat;lon;timestamp;P1;durP1;ratioP1;P2;durP2;ratioP2
78718;SDS011;68046;53.334;9.538;2023-07-16T00:02:25;6.22;;;2.50;;
78718;SDS011;68046;53.334;9.538;2023-07-16T00:04:55;4.63;;;2.50;;
78718;SDS011;68046;53.334;9.538;2023-07-16T00:07:25;5.47;;;2.22;;
78718;SDS011;68046;53.334;9.538;2023-07-16T00:12:27;6.57;;;2.50;;
78718;SDS011;68046;53.334;9.538;2023-07-16T00:14:57;6.10;;;2.50;;
78718;SDS011;68046;53.334;9.538;2023-07-16T00:17:27;5.28;;;2.63;;
78718;SDS011;68046;53.334;9.538;2023-07-16T00:19:57;5.40;;;2.50;;
78718;SDS011;68046;53.334;9.538;2023-07-16T00:22:27;3.88;;;2.42;;
78718;SDS011;68046;53.334;9.538;2023-07-16T00:24:59;4.18;;;2.30;;
78718;SDS011;68046;53.334;9.538;2023-07-16T00:27:29;4.43;;;2.58;;
78718;SDS011;68046;53.334;9.538;2023-07-16T00:29:59;6.20;;;2.58;;
78718;SDS011;68046;53.334;9.538;2023-07-16T00:32:29;5.63;;;2.17;;
78718;SDS011;68046;53.334;9.538;2023-07-16T00:35:00;5.63;;;2.63;;
78718;SDS011;68046;53.334;9.538;2023-07-16T00:37:30;3.97;;;2.25;;
78718;SDS011;68046;53.334;9.538;2023-07-16T00:40:03;4.93;;;2.08;;
78718;SDS011;68046;53.334;9.538;2023-07-16T00:42:34;6.32;;;2.20;;
78718;SDS011;68046;53.334;9.538;2023-07-16T00:45:04;4.95;;;2.55;;
78718;SDS011;68046;53.334;9.538;2023-07-16T00:47:39;4.78;;;2.17;;
78718;SDS011;68046;53.334;9.538;2023-07-16T00:50:10;3.72;;;2.53;;
78718;SDS011;68046;53.334;9.538;2023-07-16T00:52:40;5.18;;;2.00;;
78718;SDS011;68046;53.334;9.538;2023-07-16T00:55:13;4.88;;;2.10;;
78718;SDS011;68046;53.334;9.538;2023-07-16T00:57:43;8.35;;;2.60;;
78718;SDS011;68046;53.334;9.538;2023-07-16T01:00:14;5.47;;;2.35;;
78718;SDS011;68046;53.334;9.538;2023-07-16T01:02:44;5.15;;;2.60;;
78718;SDS011;68046;53.334;9.538;2023-07-16T01:05:14;4.05;;;2.60;;
78718;SDS011;68046;53.334;9.538;2023-07-16T01:07:47;7.00;;;2.65;;
78718;SDS011;68046;53.334;9.538;2023-07-16T01:10:25;6.75;;;2.50;;
78718;SDS011;68046;53.334;9.538;2023-07-16T01:12:55;6.75;;;2.55;;
78718;SDS011;68046;53.334;9.538;2023-07-16T01:15:26;4.80;;;2.40;;
78718;SDS011;68046;53.334;9.538;2023-07-16T01:17:55;6.05;;;2.92;;
78718;SDS011;68046;53.334;9.538;2023-07-16T01:20:25;4.53;;;2.47;;
78718;SDS011;68046;53.334;9.538;2023-07-16T01:23:03;6.00;;;2.88;;
78718;SDS011;68046;53.334;9.538;2023-07-16T01:29:07;4.70;;;2.47;;
78718;SDS011;68046;53.334;9.538;2023-07-16T01:31:41;5.95;;;3.10;;
78718;SDS011;68046;53.334;9.538;2023-07-16T01:34:11;6.45;;;2.90;;
78718;SDS011;68046;53.334;9.538;2023-07-16T01:36:41;6.38;;;3.15;;
78718;SDS011;68046;53.334;9.538;2023-07-16T01:39:11;10.63;;;2.80;;
78718;SDS011;68046;53.334;9.538;2023-07-16T01:41:41;4.63;;;2.58;;
78718;SDS011;68046;53.334;9.538;2023-07-16T01:44:14;4.47;;;2.67;;
78718;SDS011;68046;53.334;9.538;2023-07-16T01:46:44;4.60;;;2.67;;
78718;SDS011;68046;53.334;9.538;2023-07-16T01:49:18;6.22;;;3.08;;
78718;SDS011;68046;53.334;9.538;2023-07-16T01:51:48;8.40;;;3.08;;
78718;SDS011;68046;53.334;9.538;2023-07-16T01:54:19;5.55;;;3.00;;
78718;SDS011;68046;53.334;9.538;2023-07-16T01:56:49;7.32;;;3.10;;
78718;SDS011;68046;53.334;9.538;2023-07-16T01:59:22;5.70;;;2.80;;
78718;SDS011;68046;53.334;9.538;2023-07-16T02:01:55;4.32;;;2.90;;
78718;SDS011;68046;53.334;9.538;2023-07-16T02:04:24;6.13;;;3.15;;
78718;SDS011;68046;53.334;9.538;2023-07-16T02:06:57;4.43;;;2.75;;
78718;SDS011;68046;53.334;9.538;2023-07-16T02:09:27;6.28;;;3.05;;
78718;SDS011;68046;53.334;9.538;2023-07-16T02:11:58;8.35;;;3.22;;
78718;SDS011;68046;53.334;9.538;2023-07-16T02:14:30;5.53;;;2.80;;
78718;SDS011;68046;53.334;9.538;2023-07-16T02:17:00;4.60;;;2.97;;
78718;SDS011;68046;53.334;9.538;2023-07-16T02:19:30;6.05;;;2.92;;
78718;SDS011;68046;53.334;9.538;2023-07-16T02:22:01;8.10;;;2.67;;
78718;SDS011;68046;53.334;9.538;2023-07-16T02:24:31;10.40;;;2.72;;
78718;SDS011;68046;53.334;9.538;2023-07-16T02:27:02;6.00;;;2.70;;
78718;SDS011;68046;53.334;9.538;2023-07-16T02:29:35;6.55;;;2.97;;
78718;SDS011;68046;53.334;9.538;2023-07-16T02:32:05;7.32;;;2.55;;
78718;SDS011;68046;53.334;9.538;2023-07-16T02:34:36;6.05;;;2.75;;
78718;SDS011;68046;53.334;9.538;2023-07-16T02:37:06;6.13;;;2.90;;
78718;SDS011;68046;53.334;9.538;2023-07-16T02:39:36;7.38;;;2.70;;
78718;SDS011;68046;53.334;9.538;2023-07-16T02:42:07;4.68;;;2.50;;
78718;SDS011;68046;53.334;9.538;2023-07-16T02:44:40;6.28;;;2.78;;
78718;SDS011;68046;53.334;9.538;2023-07-16T02:47:11;5.93;;;2.95;;
78718;SDS011;68046;53.334;9.538;2023-07-16T02:49:41;6.05;;;2.72;;
78718;SDS011;68046;53.334;9.538;2023-07-16T02:52:13;6.03;;;2.60;;
78718;SDS011;68046;53.334;9.538;2023-07-16T02:54:43;6.00;;;2.80;;
78718;SDS011;68046;53.334;9.538;2023-07-16T02:57:13;7.40;;;2.85;;
78718;SDS011;68046;53.334;9.538;2023-07-16T02:59:48;4.70;;;2.80;;
78718;SDS011;68046;53.334;9.538;2023-07-16T03:02:20;5.60;;;2.40;;
78718;SDS011;68046;53.334;9.538;2023-07-16T03:04:50;7.13;;;2.65;;
78718;SDS011;68046;53.334;9.538;2023-07-16T03:07:28;5.30;;;2.55;;
78718;SDS011;68046;53.334;9.538;2023-07-16T03:10:01;4.25;;;3.08;;
78718;SDS011;68046;53.334;9.538;2023-07-16T03:12:34;5.15;;;2.83;;
78718;SDS011;68046;53.334;9.538;2023-07-16T03:15:07;8.93;;;2.67;;
78718;SDS011;68046;53.334;9.538;2023-07-16T03:17:41;5.72;;;2.20;;
78718;SDS011;68046;53.334;9.538;2023-07-16T03:20:11;7.60;;;2.90;;
78718;SDS011;68046;53.334;9.538;2023-07-16T03:22:45;4.45;;;2.67;;
78718;SDS011;68046;53.334;9.538;2023-07-16T03:25:15;7.75;;;3.13;;
78718;SDS011;68046;53.334;9.538;2023-07-16T03:27:45;5.03;;;2.53;;
78718;SDS011;68046;53.334;9.538;2023-07-16T03:30:18;5.97;;;2.70;;
78718;SDS011;68046;53.334;9.538;2023-07-16T03:32:48;5.97;;;3.00;;
78718;SDS011;68046;53.334;9.538;2023-07-16T03:35:22;5.40;;;2.85;;
78718;SDS011;68046;53.334;9.538;2023-07-16T03:37:52;4.53;;;2.42;;
78718;SDS011;68046;53.334;9.538;2023-07-16T03:40:25;6.97;;;2.72;;
78718;SDS011;68046;53.334;9.538;2023-07-16T03:42:55;6.50;;;2.65;;
78718;SDS011;68046;53.334;9.538;2023-07-16T03:45:29;4.28;;;2.60;;
78718;SDS011;68046;53.334;9.538;2023-07-16T03:47:59;7.28;;;2.75;;
78718;SDS011;68046;53.334;9.538;2023-07-16T03:50:29;8.68;;;2.85;;
78718;SDS011;68046;53.334;9.538;2023-07-16T03:52:59;5.32;;;3.00;;
78718;SDS011;68046;53.334;9.538;2023-07-16T03:55:29;4.75;;;2.83;;
78718;SDS011;68046;53.334;9.538;2023-07-16T03:57:59;4.15;;;2.58;;
78718;SDS011;68046;53.334;9.538;2023-07-16T04:00:32;5.22;;;2.60;;
78718;SDS011;68046;53.334;9.538;2023-07-16T04:03:02;7.97;;;2.85;;
78718;SDS011;68046;53.334;9.538;2023-07-16T04:05:32;6.78;;;2.78;;
78718;SDS011;68046;53.334;9.538;2023-07-16T04:08:02;7.05;;;2.88;;
78718;SDS011;68046;53.334;9.538;2023-07-16T04:10:32;8.52;;;3.08;;
78718;SDS011;68046;53.334;9.538;2023-07-16T04:13:02;7.75;;;2.88;;
78718;SDS011;68046;53.334;9.538;2023-07-16T04:15:34;5.05;;;2.88;;
78718;SDS011;68046;53.334;9.538;2023-07-16T04:18:04;6.38;;;2.80;;
78718;SDS011;68046;53.334;9.538;2023-07-16T04:20:34;8.65;;;2.30;;
78718;SDS011;68046;53.334;9.538;2023-07-16T04:23:03;5.65;;;2.65;;
78718;SDS011;68046;53.334;9.538;2023-07-16T04:25:33;3.85;;;2.40;;
78718;SDS011;68046;53.334;9.538;2023-07-16T04:28:03;7.07;;;2.55;;
78718;SDS011;68046;53.334;9.538;2023-07-16T04:30:35;4.50;;;2.55;;
78718;SDS011;68046;53.334;9.538;2023-07-16T04:33:05;6.22;;;2.60;;
78718;SDS011;68046;53.334;9.538;2023-07-16T04:35:36;5.07;;;2.60;;
78718;SDS011;68046;53.334;9.538;2023-07-16T04:38:05;8.55;;;2.83;;
78718;SDS011;68046;53.334;9.538;2023-07-16T04:40:35;6.97;;;2.85;;
78718;SDS011;68046;53.334;9.538;2023-07-16T04:43:05;4.95;;;2.42;;
78718;SDS011;68046;53.334;9.538;2023-07-16T04:45:37;11.07;;;3.15;;
78718;SDS011;68046;53.334;9.538;2023-07-16T04:48:07;7.18;;;2.55;;
78718;SDS011;68046;53.334;9.538;2023-07-16T04:50:37;4.90;;;2.28;;
78718;SDS011;68046;53.334;9.538;2023-07-16T04:53:07;7.40;;;2.97;;
78718;SDS011;68046;53.334;9.538;2023-07-16T04:55:37;5.65;;;2.38;;
78718;SDS011;68046;53.334;9.538;2023-07-16T04:58:12;5.95;;;2.63;;
78718;SDS011;68046;53.334;9.538;2023-07-16T05:00:44;6.03;;;2.40;;
78718;SDS011;68046;53.334;9.538;2023-07-16T05:03:14;7.43;;;3.13;;
78718;SDS011;68046;53.334;9.538;2023-07-16T05:05:44;7.55;;;2.63;;
78718;SDS011;68046;53.334;9.538;2023-07-16T05:08:14;6.15;;;2.75;;
78718;SDS011;68046;53.334;9.538;2023-07-16T05:10:44;5.75;;;2.38;;
78718;SDS011;68046;53.334;9.538;2023-07-16T05:13:14;8.38;;;2.63;;
78718;SDS011;68046;53.334;9.538;2023-07-16T05:15:46;5.75;;;2.95;;
78718;SDS011;68046;53.334;9.538;2023-07-16T05:18:16;8.15;;;3.20;;
78718;SDS011;68046;53.334;9.538;2023-07-16T05:20:46;5.38;;;2.60;;
78718;SDS011;68046;53.334;9.538;2023-07-16T05:23:16;6.18;;;2.88;;
78718;SDS011;68046;53.334;9.538;2023-07-16T05:25:46;5.15;;;2.92;;
78718;SDS011;68046;53.334;9.538;2023-07-16T05:28:17;7.28;;;2.97;;
78718;SDS011;68046;53.334;9.538;2023-07-16T05:30:56;5.75;;;2.75;;
78718;SDS011;68046;53.334;9.538;2023-07-16T05:33:27;8.20;;;2.85;;
78718;SDS011;68046;53.334;9.538;2023-07-16T05:35:56;9.38;;;3.17;;
78718;SDS011;68046;53.334;9.538;2023-07-16T05:38:26;4.50;;;2.45;;
78718;SDS011;68046;53.334;9.538;2023-07-16T05:40:59;6.22;;;3.22;;
78718;SDS011;68046;53.334;9.538;2023-07-16T05:43:30;6.72;;;2.78;;
78718;SDS011;68046;53.334;9.538;2023-07-16T05:46:02;8.45;;;3.10;;
78718;SDS011;68046;53.334;9.538;2023-07-16T05:48:32;8.75;;;2.60;;
78718;SDS011;68046;53.334;9.538;2023-07-16T05:51:02;4.53;;;2.53;;
78718;SDS011;68046;53.334;9.538;2023-07-16T05:53:32;6.80;;;3.05;;
78718;SDS011;68046;53.334;9.538;2023-07-16T05:56:02;6.00;;;2.75;;
78718;SDS011;68046;53.334;9.538;2023-07-16T05:58:31;7.88;;;3.42;;
78718;SDS011;68046;53.334;9.538;2023-07-16T06:01:04;6.47;;;2.83;;
78718;SDS011;68046;53.334;9.538;2023-07-16T06:03:34;5.97;;;2.50;;
78718;SDS011;68046;53.334;9.538;2023-07-16T06:06:03;5.05;;;2.70;;
78718;SDS011;68046;53.334;9.538;2023-07-16T06:08:33;10.43;;;2.90;;
78718;SDS011;68046;53.334;9.538;2023-07-16T06:11:03;7.40;;;2.50;;
78718;SDS011;68046;53.334;9.538;2023-07-16T06:13:33;12.85;;;3.20;;
78718;SDS011;68046;53.334;9.538;2023-07-16T06:16:05;7.53;;;2.67;;
78718;SDS011;68046;53.334;9.538;2023-07-16T06:18:35;10.63;;;3.50;;
78718;SDS011;68046;53.334;9.538;2023-07-16T06:21:05;10.05;;;2.85;;
78718;SDS011;68046;53.334;9.538;2023-07-16T06:23:34;9.00;;;3.38;;
78718;SDS011;68046;53.334;9.538;2023-07-16T06:26:04;14.55;;;3.80;;
78718;SDS011;68046;53.334;9.538;2023-07-16T06:28:34;11.07;;;3.90;;
78718;SDS011;68046;53.334;9.538;2023-07-16T06:31:06;12.45;;;3.13;;
78718;SDS011;68046;53.334;9.538;2023-07-16T06:33:36;7.15;;;3.28;;
78718;SDS011;68046;53.334;9.538;2023-07-16T06:36:05;9.23;;;3.47;;
78718;SDS011;68046;53.334;9.538;2023-07-16T06:38:35;11.52;;;3.75;;
78718;SDS011;68046;53.334;9.538;2023-07-16T06:41:05;10.77;;;4.38;;
78718;SDS011;68046;53.334;9.538;2023-07-16T06:43:35;10.80;;;3.60;;
78718;SDS011;68046;53.334;9.538;2023-07-16T06:46:07;8.60;;;3.35;;
78718;SDS011;68046;53.334;9.538;2023-07-16T06:48:37;10.50;;;3.30;;
78718;SDS011;68046;53.334;9.538;2023-07-16T06:51:07;8.65;;;3.47;;
78718;SDS011;68046;53.334;9.538;2023-07-16T06:53:36;7.00;;;3.13;;
78718;SDS011;68046;53.334;9.538;2023-07-16T06:56:06;16.67;;;3.60;;
78718;SDS011;68046;53.334;9.538;2023-07-16T06:58:36;8.75;;;3.28;;
78718;SDS011;68046;53.334;9.538;2023-07-16T07:01:08;10.23;;;3.42;;
78718;SDS011;68046;53.334;9.538;2023-07-16T07:03:38;10.90;;;3.55;;
78718;SDS011;68046;53.334;9.538;2023-07-16T07:06:08;5.28;;;2.80;;
78718;SDS011;68046;53.334;9.538;2023-07-16T07:08:39;13.57;;;4.35;;
78718;SDS011;68046;53.334;9.538;2023-07-16T07:11:08;6.18;;;3.42;;
78718;SDS011;68046;53.334;9.538;2023-07-16T07:13:38;9.18;;;3.15;;
78718;SDS011;68046;53.334;9.538;2023-07-16T07:16:11;8.00;;;3.20;;
78718;SDS011;68046;53.334;9.538;2023-07-16T07:18:41;11.38;;;3.08;;
78718;SDS011;68046;53.334;9.538;2023-07-16T07:21:11;5.25;;;2.72;;
78718;SDS011;68046;53.334;9.538;2023-07-16T07:23:41;6.90;;;2.90;;
78718;SDS011;68046;53.334;9.538;2023-07-16T07:26:11;13.45;;;3.40;;
78718;SDS011;68046;53.334;9.538;2023-07-16T07:31:13;8.40;;;2.80;;
78718;SDS011;68046;53.334;9.538;2023-07-16T07:33:43;9.50;;;3.13;;
78718;SDS011;68046;53.334;9.538;2023-07-16T07:36:15;8.95;;;3.25;;
78718;SDS011;68046;53.334;9.538;2023-07-16T07:38:45;11.52;;;3.00;;
78718;SDS011;68046;53.334;9.538;2023-07-16T07:41:15;7.95;;;2.78;;
78718;SDS011;68046;53.334;9.538;2023-07-16T07:43:46;6.63;;;2.58;;
78718;SDS011;68046;53.334;9.538;2023-07-16T07:46:18;11.75;;;2.65;;
78718;SDS011;68046;53.334;9.538;2023-07-16T07:48:48;9.20;;;2.90;;
78718;SDS011;68046;53.334;9.538;2023-07-16T07:51:18;5.50;;;3.22;;
78718;SDS011;68046;53.334;9.538;2023-07-16T07:53:48;8.57;;;2.83;;
78718;SDS011;68046;53.334;9.538;2023-07-16T07:56:18;5.20;;;2.70;;
78718;SDS011;68046;53.334;9.538;2023-07-16T07:58:48;9.23;;;3.17;;
78718;SDS011;68046;53.334;9.538;2023-07-16T08:01:21;12.95;;;3.35;;
78718;SDS011;68046;53.334;9.538;2023-07-16T08:03:51;9.25;;;3.38;;
78718;SDS011;68046;53.334;9.538;2023-07-16T08:06:21;8.40;;;3.67;;
78718;SDS011;68046;53.334;9.538;2023-07-16T08:08:50;9.25;;;4.30;;
78718;SDS011;68046;53.334;9.538;2023-07-16T08:11:20;9.20;;;4.75;;
78718;SDS011;68046;53.334;9.538;2023-07-16T08:13:50;7.72;;;4.50;;
78718;SDS011;68046;53.334;9.538;2023-07-16T08:16:22;10.63;;;4.82;;
78718;SDS011;68046;53.334;9.538;2023-07-16T08:18:52;8.23;;;4.90;;
78718;SDS011;68046;53.334;9.538;2023-07-16T08:21:29;9.65;;;5.00;;
78718;SDS011;68046;53.334;9.538;2023-07-16T08:24:24;6.78;;;4.22;;
78718;SDS011;68046;53.334;9.538;2023-07-16T08:27:16;8.15;;;4.88;;
78718;SDS011;68046;53.334;9.538;2023-07-16T08:29:55;8.35;;;5.13;;
78718;SDS011;68046;53.334;9.538;2023-07-16T08:32:52;11.18;;;4.90;;
78718;SDS011;68046;53.334;9.538;2023-07-16T08:35:23;12.68;;;5.10;;
78718;SDS011;68046;53.334;9.538;2023-07-16T08:40:26;10.77;;;5.00;;
78718;SDS011;68046;53.334;9.538;2023-07-16T08:43:00;8.88;;;4.95;;
78718;SDS011;68046;53.334;9.538;2023-07-16T08:45:31;10.77;;;4.78;;
78718;SDS011;68046;53.334;9.538;2023-07-16T08:48:11;13.30;;;4.70;;
78718;SDS011;68046;53.334;9.538;2023-07-16T08:50:54;10.95;;;4.53;;
78718;SDS011;68046;53.334;9.538;2023-07-16T08:53:37;13.60;;;5.40;;
78718;SDS011;68046;53.334;9.538;2023-07-16T08:56:07;12.10;;;4.57;;
78718;SDS011;68046;53.334;9.538;2023-07-16T08:58:40;9.75;;;4.57;;
78718;SDS011;68046;53.334;9.538;2023-07-16T09:04:27;9.48;;;4.25;;
78718;SDS011;68046;53.334;9.538;2023-07-16T09:07:14;8.85;;;3.70;;
78718;SDS011;68046;53.334;9.538;2023-07-16T09:12:50;8.98;;;4.15;;
78718;SDS011;68046;53.334;9.538;2023-07-16T09:15:33;8.13;;;4.15;;
78718;SDS011;68046;53.334;9.538;2023-07-16T09:18:30;8.32;;;4.05;;
78718;SDS011;68046;53.334;9.538;2023-07-16T09:21:41;12.13;;;5.32;;
78718;SDS011;68046;53.334;9.538;2023-07-16T09:24:28;10.70;;;4.32;;
78718;SDS011;68046;53.334;9.538;2023-07-16T09:27:04;9.18;;;4.80;;
78718;SDS011;68046;53.334;9.538;2023-07-16T09:32:54;8.43;;;4.72;;
78718;SDS011;68046;53.334;9.538;2023-07-16T09:35:32;7.35;;;3.85;;
78718;SDS011;68046;53.334;9.538;2023-07-16T09:38:12;9.52;;;4.10;;
78718;SDS011;68046;53.334;9.538;2023-07-16T09:41:03;10.68;;;4.35;;
78718;SDS011;68046;53.334;9.538;2023-07-16T09:43:44;10.00;;;4.10;;
78718;SDS011;68046;53.334;9.538;2023-07-16T09:46:48;8.52;;;3.92;;
78718;SDS011;68046;53.334;9.538;2023-07-16T09:49:35;8.68;;;3.95;;
78718;SDS011;68046;53.334;9.538;2023-07-16T09:52:17;13.27;;;4.70;;
78718;SDS011;68046;53.334;9.538;2023-07-16T09:54:55;11.70;;;4.28;;
78718;SDS011;68046;53.334;9.538;2023-07-16T09:57:32;9.07;;;4.25;;
78718;SDS011;68046;53.334;9.538;2023-07-16T10:00:07;11.35;;;4.50;;
78718;SDS011;68046;53.334;9.538;2023-07-16T10:02:44;8.20;;;3.90;;
78718;SDS011;68046;53.334;9.538;2023-07-16T10:05:35;9.07;;;4.45;;
78718;SDS011;68046;53.334;9.538;2023-07-16T10:08:25;7.30;;;3.80;;
78718;SDS011;68046;53.334;9.538;2023-07-16T10:14:06;10.90;;;4.60;;
78718;SDS011;68046;53.334;9.538;2023-07-16T10:16:38;11.00;;;4.53;;
78718;SDS011;68046;53.334;9.538;2023-07-16T10:19:22;7.97;;;4.43;;
78718;SDS011;68046;53.334;9.538;2023-07-16T10:22:06;8.13;;;4.55;;
78718;SDS011;68046;53.334;9.538;2023-07-16T10:24:41;8.80;;;4.70;;
78718;SDS011;68046;53.334;9.538;2023-07-16T10:27:47;9.93;;;3.90;;
78718;SDS011;68046;53.334;9.538;2023-07-16T10:30:53;9.13;;;4.55;;
78718;SDS011;68046;53.334;9.538;2023-07-16T10:34:06;16.27;;;4.32;;
78718;SDS011;68046;53.334;9.538;2023-07-16T10:36:54;6.55;;;3.70;;
78718;SDS011;68046;53.334;9.538;2023-07-16T10:40:12;15.02;;;4.15;;
78718;SDS011;68046;53.334;9.538;2023-07-16T10:43:45;8.30;;;3.40;;
78718;SDS011;68046;53.334;9.538;2023-07-16T10:52:14;7.60;;;3.20;;
78718;SDS011;68046;53.334;9.538;2023-07-16T10:55:09;7.55;;;3.40;;
78718;SDS011;68046;53.334;9.538;2023-07-16T10:57:46;9.73;;;3.50;;
78718;SDS011;68046;53.334;9.538;2023-07-16T11:00:39;7.45;;;3.50;;
78718;SDS011;68046;53.334;9.538;2023-07-16T11:03:32;10.02;;;3.53;;
78718;SDS011;68046;53.334;9.538;2023-07-16T11:06:08;13.35;;;4.00;;
78718;SDS011;68046;53.334;9.538;2023-07-16T11:09:22;8.27;;;3.97;;
78718;SDS011;68046;53.334;9.538;2023-07-16T11:12:29;11.30;;;3.70;;
78718;SDS011;68046;53.334;9.538;2023-07-16T11:15:12;7.53;;;3.53;;
78718;SDS011;68046;53.334;9.538;2023-07-16T11:18:00;8.55;;;4.30;;
78718;SDS011;68046;53.334;9.538;2023-07-16T11:20:37;7.13;;;3.55;;
78718;SDS011;68046;53.334;9.538;2023-07-16T11:23:17;6.57;;;3.65;;
78718;SDS011;68046;53.334;9.538;2023-07-16T11:26:01;12.40;;;3.40;;
78718;SDS011;68046;53.334;9.538;2023-07-16T11:28:42;9.18;;;3.65;;
78718;SDS011;68046;53.334;9.538;2023-07-16T11:31:13;8.60;;;3.50;;
78718;SDS011;68046;53.334;9.538;2023-07-16T11:33:59;9.10;;;3.78;;
78718;SDS011;68046;53.334;9.538;2023-07-16T11:36:43;6.63;;;3.58;;
78718;SDS011;68046;53.334;9.538;2023-07-16T11:39:17;8.02;;;3.53;;
78718;SDS011;68046;53.334;9.538;2023-07-16T11:44:34;9.07;;;4.25;;
78718;SDS011;68046;53.334;9.538;2023-07-16T11:47:21;5.45;;;3.00;;
78718;SDS011;68046;53.334;9.538;2023-07-16T11:52:54;9.35;;;3.53;;
78718;SDS011;68046;53.334;9.538;2023-07-16T11:58:27;9.95;;;3.53;;
78718;SDS011;68046;53.334;9.538;2023-07-16T12:01:11;9.25;;;3.13;;
78718;SDS011;68046;53.334;9.538;2023-07-16T12:03:46;8.82;;;3.38;;
78718;SDS011;68046;53.334;9.538;2023-07-16T12:06:32;9.82;;;3.30;;
78718;SDS011;68046;53.334;9.538;2023-07-16T12:09:18;11.07;;;3.75;;
78718;SDS011;68046;53.334;9.538;2023-07-16T12:12:06;10.80;;;3.00;;
78718;SDS011;68046;53.334;9.538;2023-07-16T12:14:43;8.95;;;3.05;;
78718;SDS011;68046;53.334;9.538;2023-07-16T12:17:19;4.43;;;2.83;;
78718;SDS011;68046;53.334;9.538;2023-07-16T12:19:50;5.90;;;3.30;;
78718;SDS011;68046;53.334;9.538;2023-07-16T12:22:25;7.70;;;3.67;;
78718;SDS011;68046;53.334;9.538;2023-07-16T12:24:56;6.60;;;3.10;;
78718;SDS011;68046;53.334;9.538;2023-07-16T12:27:35;7.22;;;3.15;;
78718;SDS011;68046;53.334;9.538;2023-07-16T12:30:21;6.47;;;3.30;;
78718;SDS011;68046;53.334;9.538;2023-07-16T12:32:51;23.05;;;5.20;;
78718;SDS011;68046;53.334;9.538;2023-07-16T12:35:38;7.90;;;3.38;;
78718;SDS011;68046;53.334;9.538;2023-07-16T12:38:16;6.63;;;3.10;;
78718;SDS011;68046;53.334;9.538;2023-07-16T12:40:59;7.57;;;3.20;;
78718;SDS011;68046;53.334;9.538;2023-07-16T12:43:50;6.05;;;3.00;;
78718;SDS011;68046;53.334;9.538;2023-07-16T12:46:27;11.82;;;3.55;;
78718;SDS011;68046;53.334;9.538;2023-07-16T12:49:00;8.23;;;3.65;;
78718;SDS011;68046;53.334;9.538;2023-07-16T12:51:36;5.80;;;2.97;;
78718;SDS011;68046;53.334;9.538;2023-07-16T12:54:14;9.98;;;3.88;;
78718;SDS011;68046;53.334;9.538;2023-07-16T12:56:50;12.18;;;3.35;;
78718;SDS011;68046;53.334;9.538;2023-07-16T12:59:26;5.90;;;2.97;;
78718;SDS011;68046;53.334;9.538;2023-07-16T13:02:04;10.70;;;3.55;;
78718;SDS011;68046;53.334;9.538;2023-07-16T13:04:42;6.45;;;3.25;;
78718;SDS011;68046;53.334;9.538;2023-07-16T13:07:12;8.68;;;3.53;;
78718;SDS011;68046;53.334;9.538;2023-07-16T13:10:01;5.25;;;2.80;;
78718;SDS011;68046;53.334;9.538;2023-07-16T13:12:57;5.43;;;2.67;;
78718;SDS011;68046;53.334;9.538;2023-07-16T13:16:04;9.68;;;3.30;;
78718;SDS011;68046;53.334;9.538;2023-07-16T13:18:56;9.25;;;3.38;;
78718;SDS011;68046;53.334;9.538;2023-07-16T13:21:34;4.55;;;3.05;;
78718;SDS011;68046;53.334;9.538;2023-07-16T13:28:00;11.02;;;3.25;;
78718;SDS011;68046;53.334;9.538;2023-07-16T13:30:32;8.15;;;3.08;;
78718;SDS011;68046;53.334;9.538;2023-07-16T13:33:15;5.47;;;3.17;;
78718;SDS011;68046;53.334;9.538;2023-07-16T13:35:59;6.22;;;3.00;;
78718;SDS011;68046;53.334;9.538;2023-07-16T13:38:31;6.30;;;2.88;;
78718;SDS011;68046;53.334;9.538;2023-07-16T13:44:16;12.40;;;4.07;;
78718;SDS011;68046;53.334;9.538;2023-07-16T13:46:48;7.57;;;3.65;;
78718;SDS011;68046;53.334;9.538;2023-07-16T13:52:21;7.60;;;3.20;;
78718;SDS011;68046;53.334;9.538;2023-07-16T13:55:24;9.85;;;3.25;;
78718;SDS011;68046;53.334;9.538;2023-07-16T14:00:56;8.73;;;3.63;;
78718;SDS011;68046;53.334;9.538;2023-07-16T14:03:26;12.82;;;3.58;;
78718;SDS011;68046;53.334;9.538;2023-07-16T14:05:56;6.53;;;3.08;;
78718;SDS011;68046;53.334;9.538;2023-07-16T14:08:26;12.40;;;3.20;;
78718;SDS011;68046;53.334;9.538;2023-07-16T14:10:57;6.72;;;3.47;;
78718;SDS011;68046;53.334;9.538;2023-07-16T14:13:27;8.40;;;3.33;;
78718;SDS011;68046;53.334;9.538;2023-07-16T14:15:59;7.38;;;2.78;;
78718;SDS011;68046;53.334;9.538;2023-07-16T14:22:47;6.45;;;3.08;;
78718;SDS011;68046;53.334;9.538;2023-07-16T14:25:17;7.15;;;2.97;;
78718;SDS011;68046;53.334;9.538;2023-07-16T14:27:47;7.63;;;3.72;;
78718;SDS011;68046;53.334;9.538;2023-07-16T14:30:17;8.30;;;3.53;;
78718;SDS011;68046;53.334;9.538;2023-07-16T14:32:50;10.50;;;3.20;;
78718;SDS011;68046;53.334;9.538;2023-07-16T14:35:19;6.53;;;2.97;;
78718;SDS011;68046;53.334;9.538;2023-07-16T14:38:01;6.40;;;3.38;;
78718;SDS011;68046;53.334;9.538;2023-07-16T14:43:01;6.57;;;3.50;;
78718;SDS011;68046;53.334;9.538;2023-07-16T14:45:30;11.43;;;3.58;;
78718;SDS011;68046;53.334;9.538;2023-07-16T14:48:03;7.22;;;3.47;;
78718;SDS011;68046;53.334;9.538;2023-07-16T14:50:36;7.40;;;3.38;;
78718;SDS011;68046;53.334;9.538;2023-07-16T14:53:06;8.80;;;3.58;;
78718;SDS011;68046;53.334;9.538;2023-07-16T14:55:37;4.85;;;3.03;;
78718;SDS011;68046;53.334;9.538;2023-07-16T14:58:06;6.53;;;3.33;;
78718;SDS011;68046;53.334;9.538;2023-07-16T15:00:36;6.22;;;3.58;;
78718;SDS011;68046;53.334;9.538;2023-07-16T15:03:09;8.52;;;3.45;;
78718;SDS011;68046;53.334;9.538;2023-07-16T15:05:39;7.68;;;3.53;;
78718;SDS011;68046;53.334;9.538;2023-07-16T15:08:08;6.15;;;3.50;;
78718;SDS011;68046;53.334;9.538;2023-07-16T15:10:38;7.40;;;3.80;;
78718;SDS011;68046;53.334;9.538;2023-07-16T15:13:08;10.77;;;3.33;;
78718;SDS011;68046;53.334;9.538;2023-07-16T15:15:38;9.48;;;3.60;;
78718;SDS011;68046;53.334;9.538;2023-07-16T15:18:11;16.17;;;4.30;;
78718;SDS011;68046;53.334;9.538;2023-07-16T15:20:40;7.78;;;3.47;;
78718;SDS011;68046;53.334;9.538;2023-07-16T15:23:11;8.18;;;3.78;;
78718;SDS011;68046;53.334;9.538;2023-07-16T15:25:41;13.15;;;3.90;;
78718;SDS011;68046;53.334;9.538;2023-07-16T15:28:11;5.10;;;2.90;;
78718;SDS011;68046;53.334;9.538;2023-07-16T15:30:41;7.47;;;3.40;;
78718;SDS011;68046;53.334;9.538;2023-07-16T15:33:14;6.38;;;3.10;;
78718;SDS011;68046;53.334;9.538;2023-07-16T15:35:44;13.95;;;3.58;;
78718;SDS011;68046;53.334;9.538;2023-07-16T15:38:13;5.55;;;2.90;;
78718;SDS011;68046;53.334;9.538;2023-07-16T15:40:43;9.30;;;3.72;;
78718;SDS011;68046;53.334;9.538;2023-07-16T15:43:14;6.65;;;3.40;;
78718;SDS011;68046;53.334;9.538;2023-07-16T15:45:44;10.68;;;4.00;;
78718;SDS011;68046;53.334;9.538;2023-07-16T15:48:16;9.38;;;3.53;;
78718;SDS011;68046;53.334;9.538;2023-07-16T15:50:46;9.10;;;3.00;;
78718;SDS011;68046;53.334;9.538;2023-07-16T15:53:17;9.73;;;4.00;;
78718;SDS011;68046;53.334;9.538;2023-07-16T15:55:47;7.07;;;3.63;;
78718;SDS011;68046;53.334;9.538;2023-07-16T15:58:17;7.63;;;2.78;;
78718;SDS011;68046;53.334;9.538;2023-07-16T16:00:47;7.88;;;3.25;;
78718;SDS011;68046;53.334;9.538;2023-07-16T16:03:20;9.35;;;3.53;;
78718;SDS011;68046;53.334;9.538;2023-07-16T16:05:52;11.45;;;3.30;;
78718;SDS011;68046;53.334;9.538;2023-07-16T16:08:23;11.63;;;4.00;;
78718;SDS011;68046;53.334;9.538;2023-07-16T16:10:53;6.78;;;3.45;;
78718;SDS011;68046;53.334;9.538;2023-07-16T16:13:23;7.30;;;3.75;;
78718;SDS011;68046;53.334;9.538;2023-07-16T16:18:25;7.40;;;3.75;;
78718;SDS011;68046;53.334;9.538;2023-07-16T16:20:56;7.15;;;3.22;;
78718;SDS011;68046;53.334;9.538;2023-07-16T16:23:26;9.23;;;3.60;;
78718;SDS011;68046;53.334;9.538;2023-07-16T16:25:56;31.52;;;5.07;;
78718;SDS011;68046;53.334;9.538;2023-07-16T16:28:26;8.73;;;3.70;;
78718;SDS011;68046;53.334;9.538;2023-07-16T16:30:55;10.45;;;3.80;;